createdAt,value
2022-12-26T00:01:05.315Z,56.34
2022-12-26T00:03:32.799Z,56.21
2022-12-26T00:06:00.374Z,56.39
2022-12-26T00:08:27.799Z,56.25
2022-12-26T00:10:55.697Z,56.16
2022-12-26T00:13:40.393Z,56.24
2022-12-26T00:16:18.613Z,56.28
2022-12-26T00:18:46.763Z,56.56
2022-12-26T00:21:16.105Z,56.45
2022-12-26T00:23:43.859Z,56.35
2022-12-26T00:26:14.585Z,56.52
2022-12-26T00:28:42.832Z,56.50
2022-12-26T00:31:13.367Z,56.45
2022-12-26T00:33:40.917Z,56.53
2022-12-26T00:36:14.133Z,56.75
2022-12-26T00:38:42.582Z,56.55
2022-12-26T00:41:11.487Z,56.91
2022-12-26T00:43:38.980Z,56.63
2022-12-26T00:46:07.289Z,56.73
2022-12-26T00:48:35.399Z,56.77
2022-12-26T00:51:03.724Z,56.59
2022-12-26T00:53:31.270Z,56.89
2022-12-26T00:55:59.235Z,57.04
2022-12-26T00:58:26.841Z,57.02
2022-12-26T01:00:54.869Z,56.82
2022-12-26T01:03:22.415Z,56.92
2022-12-26T01:05:51.701Z,57.01
2022-12-26T01:08:24.641Z,57.13
2022-12-26T01:10:52.624Z,57.55
2022-12-26T01:13:20.058Z,56.95
2022-12-26T01:15:49.892Z,57.16
2022-12-26T01:18:17.628Z,56.99
2022-12-26T01:20:44.964Z,57.18
2022-12-26T01:23:12.324Z,56.92
2022-12-26T01:26:15.653Z,56.91
2022-12-26T01:28:27.714Z,57.21
2022-12-26T01:30:55.132Z,57.08
2022-12-26T01:33:22.664Z,57.08
2022-12-26T01:35:51.841Z,56.97
2022-12-26T01:38:19.950Z,56.99
2022-12-26T01:40:48.285Z,56.84
2022-12-26T01:43:16.927Z,57.23
2022-12-26T01:45:50.567Z,57.31
2022-12-26T01:48:17.889Z,57.02
2022-12-26T01:50:56.921Z,57.17
2022-12-26T01:53:39.517Z,56.84
2022-12-26T01:56:28.574Z,57.12
2022-12-26T01:59:02.634Z,57.00
2022-12-26T02:01:33.021Z,57.20
2022-12-26T02:04:23.752Z,57.32
2022-12-26T02:06:51.255Z,57.00
2022-12-26T02:09:19.511Z,57.15
2022-12-26T02:12:34.275Z,56.87
2022-12-26T02:14:40.526Z,56.86
2022-12-26T02:17:08.009Z,57.12
2022-12-26T02:20:05.252Z,56.94
2022-12-26T02:22:43.341Z,57.03
2022-12-26T02:25:38.964Z,57.15
2022-12-26T02:28:31.433Z,56.87
2022-12-26T02:31:09.702Z,57.17
2022-12-26T02:33:46.871Z,56.93
2022-12-26T02:36:14.137Z,57.11
2022-12-26T02:39:44.688Z,57.14
2022-12-26T02:42:19.342Z,56.82
2022-12-26T02:45:13.427Z,56.82
2022-12-26T02:48:08.817Z,56.70
2022-12-26T02:51:14.471Z,56.94
2022-12-26T02:54:18.852Z,56.96
2022-12-26T02:57:10.393Z,56.80
2022-12-26T03:00:07.978Z,56.89
2022-12-26T03:03:00.756Z,56.66
2022-12-26T03:05:54.802Z,56.84
2022-12-26T03:08:56.144Z,56.90
2022-12-26T03:11:51.819Z,56.77
2022-12-26T03:14:42.732Z,56.69
2022-12-26T03:17:21.826Z,56.43
2022-12-26T03:20:01.212Z,56.59
2022-12-26T03:22:46.800Z,56.47
2022-12-26T03:26:08.675Z,56.46
2022-12-26T03:28:36.188Z,56.57
2022-12-26T03:31:07.777Z,56.39
2022-12-26T03:33:58.676Z,56.73
2022-12-26T03:36:35.939Z,56.06
2022-12-26T03:39:46.954Z,56.47
2022-12-26T03:42:52.717Z,56.32
2022-12-26T03:46:09.959Z,56.08
2022-12-26T03:49:27.249Z,56.45
2022-12-26T03:52:23.687Z,56.17
2022-12-26T03:55:20.056Z,56.37
2022-12-26T03:58:17.835Z,56.06
2022-12-26T04:01:05.995Z,56.32
2022-12-26T04:03:55.684Z,56.44
2022-12-26T04:06:47.007Z,56.42
2022-12-26T04:09:45.578Z,56.29
2022-12-26T04:12:38.640Z,56.33
2022-12-26T04:15:41.465Z,56.52
2022-12-26T04:18:34.592Z,56.41
2022-12-26T04:21:39.608Z,56.37
2022-12-26T04:24:33.834Z,55.88
2022-12-26T04:27:24.591Z,56.01
2022-12-26T04:30:11.233Z,55.87
2022-12-26T04:33:08.616Z,55.92
2022-12-26T04:36:10.717Z,56.06
2022-12-26T04:39:03.463Z,56.40
2022-12-26T04:41:52.619Z,56.43
2022-12-26T04:44:25.288Z,56.10
2022-12-26T04:46:54.372Z,55.99
2022-12-26T04:49:40.652Z,55.80
2022-12-26T04:52:12.359Z,56.16
2022-12-26T04:54:39.786Z,56.05
2022-12-26T04:57:08.231Z,55.97
2022-12-26T04:59:35.618Z,55.91
2022-12-26T05:02:21.683Z,55.93
2022-12-26T05:05:07.735Z,56.11
2022-12-26T05:07:55.793Z,55.74
2022-12-26T05:10:28.269Z,55.68
2022-12-26T05:12:55.839Z,56.02
2022-12-26T05:15:23.559Z,55.81
2022-12-26T05:18:09.512Z,55.77
2022-12-26T05:20:58.485Z,55.95
2022-12-26T05:23:46.427Z,55.75
2022-12-26T05:26:41.479Z,55.88
2022-12-26T05:29:09.234Z,55.57
2022-12-26T05:31:37.345Z,55.55
2022-12-26T05:34:06.303Z,55.69
2022-12-26T05:36:35.655Z,55.70
2022-12-26T05:39:04.180Z,55.59
2022-12-26T05:41:31.925Z,55.52
2022-12-26T05:43:59.295Z,55.63
2022-12-26T05:46:26.969Z,55.52
2022-12-26T05:48:54.393Z,55.34
2022-12-26T05:51:21.810Z,55.19
2022-12-26T05:53:49.533Z,55.32
2022-12-26T05:56:18.048Z,55.40
2022-12-26T05:58:45.958Z,55.49
2022-12-26T06:01:13.338Z,55.28
2022-12-26T06:03:43.471Z,55.48
2022-12-26T06:06:11.217Z,55.21
2022-12-26T06:08:38.715Z,55.18
2022-12-26T06:11:08.371Z,55.22
2022-12-26T06:13:38.148Z,54.92
2022-12-26T06:16:08.018Z,55.38
2022-12-26T06:18:35.842Z,55.32
2022-12-26T06:21:12.390Z,55.09
2022-12-26T06:23:40.449Z,55.28
2022-12-26T06:26:10.244Z,55.34
2022-12-26T06:28:39.976Z,55.45
2022-12-26T06:31:21.284Z,55.28
2022-12-26T06:33:51.399Z,55.25
2022-12-26T06:36:21.670Z,55.23
2022-12-26T06:38:49.702Z,55.07
2022-12-26T06:41:19.466Z,55.00
2022-12-26T06:43:47.391Z,55.14
2022-12-26T06:46:17.594Z,55.00
2022-12-26T06:48:45.041Z,55.11
2022-12-26T06:51:19.143Z,54.84
2022-12-26T06:53:46.552Z,54.95
2022-12-26T06:56:19.568Z,54.80
2022-12-26T06:58:47.045Z,55.04
2022-12-26T07:01:21.280Z,54.84
2022-12-26T07:03:54.495Z,54.89
2022-12-26T07:06:28.082Z,55.10
2022-12-26T07:09:16.992Z,55.26
2022-12-26T07:11:49.463Z,55.03
2022-12-26T07:14:17.344Z,54.92
2022-12-26T07:16:45.885Z,54.97
2022-12-26T07:19:15.874Z,54.91
2022-12-26T07:21:43.655Z,54.80
2022-12-26T07:24:16.381Z,55.04
2022-12-26T07:26:45.069Z,55.12
2022-12-26T07:29:13.555Z,55.19
2022-12-26T07:31:41.759Z,55.10
2022-12-26T07:34:09.157Z,55.05
2022-12-26T07:36:36.547Z,55.40
2022-12-26T07:39:03.932Z,55.32
2022-12-26T07:41:50.344Z,55.12
2022-12-26T07:44:17.764Z,55.42
2022-12-26T07:46:46.810Z,54.89
2022-12-26T07:49:14.521Z,55.08
2022-12-26T07:51:42.615Z,55.07
2022-12-26T07:54:11.878Z,54.89
2022-12-26T07:56:40.433Z,55.20
2022-12-26T07:59:12.041Z,55.14
2022-12-26T08:01:39.568Z,54.91
2022-12-26T08:04:07.053Z,54.91
2022-12-26T08:06:34.908Z,54.87
2022-12-26T08:09:02.375Z,54.96
2022-12-26T08:11:33.306Z,54.87
2022-12-26T08:14:01.713Z,54.99
2022-12-26T08:16:29.240Z,54.92
2022-12-26T08:18:56.623Z,55.30
2022-12-26T08:21:24.126Z,55.37
2022-12-26T08:23:51.763Z,55.07
2022-12-26T08:26:22.643Z,55.24
2022-12-26T08:28:51.707Z,55.42
2022-12-26T08:31:20.597Z,55.19
2022-12-26T08:33:48.528Z,55.15
2022-12-26T08:36:19.359Z,55.60
2022-12-26T08:38:46.780Z,55.27
2022-12-26T08:41:14.527Z,55.41
2022-12-26T08:46:29.235Z,55.59
2022-12-26T08:48:56.661Z,55.15
2022-12-26T08:51:25.212Z,55.11
2022-12-26T08:53:54.878Z,55.08
2022-12-26T08:56:24.914Z,55.15
2022-12-26T08:58:52.436Z,54.99
2022-12-26T09:01:24.124Z,54.94
2022-12-26T09:03:56.411Z,55.01
2022-12-26T09:06:24.209Z,54.96
2022-12-26T09:08:52.257Z,54.79
2022-12-26T09:11:22.849Z,54.91
2022-12-26T09:13:51.008Z,54.93
2022-12-26T09:16:21.411Z,55.07
2022-12-26T09:18:54.104Z,54.90
2022-12-26T09:21:21.759Z,54.91
2022-12-26T09:23:49.213Z,54.74
2022-12-26T09:26:19.197Z,54.70
2022-12-26T09:28:47.438Z,54.97
2022-12-26T09:31:23.275Z,55.15
2022-12-26T09:33:51.108Z,54.80
2022-12-26T09:36:23.873Z,54.84
2022-12-26T09:38:52.043Z,55.05
2022-12-26T09:41:48.033Z,55.07
2022-12-26T09:44:35.180Z,54.93
2022-12-26T09:47:11.690Z,54.83
2022-12-26T09:50:00.922Z,54.91
2022-12-26T09:53:12.901Z,54.71
2022-12-26T09:55:55.856Z,54.68
2022-12-26T09:58:29.242Z,54.63
2022-12-26T10:01:20.304Z,54.97
2022-12-26T10:03:56.927Z,54.78
2022-12-26T10:06:38.292Z,54.79
2022-12-26T10:09:24.317Z,54.86
2022-12-26T10:12:03.616Z,54.91
2022-12-26T10:14:40.330Z,54.88
2022-12-26T10:17:23.714Z,54.61
2022-12-26T10:19:54.171Z,54.74
2022-12-26T10:22:59.215Z,54.74
2022-12-26T10:25:42.293Z,54.68
2022-12-26T10:28:18.026Z,54.66
2022-12-26T10:30:47.684Z,54.59
2022-12-26T10:33:30.512Z,54.71
2022-12-26T10:35:58.685Z,54.44
2022-12-26T10:38:41.397Z,54.69
2022-12-26T10:41:14.847Z,54.81
2022-12-26T10:43:44.985Z,54.17
2022-12-26T10:46:50.182Z,54.28
2022-12-26T10:49:22.080Z,54.38
2022-12-26T10:51:50.867Z,54.60
2022-12-26T10:54:20.047Z,54.31
2022-12-26T10:56:50.802Z,54.58
2022-12-26T10:59:21.458Z,54.42
2022-12-26T11:01:50.758Z,54.41
2022-12-26T11:05:02.251Z,54.49
2022-12-26T11:07:12.871Z,54.26
2022-12-26T11:09:43.071Z,54.07
2022-12-26T11:12:35.288Z,53.82
2022-12-26T11:15:06.945Z,53.76
2022-12-26T11:17:43.325Z,53.88
2022-12-26T11:20:10.736Z,53.62
2022-12-26T11:22:39.163Z,53.51
2022-12-26T11:25:09.456Z,53.91
2022-12-26T11:27:39.349Z,53.91
2022-12-26T11:30:30.524Z,54.33
2022-12-26T11:33:14.585Z,54.19
2022-12-26T11:35:49.580Z,54.21
2022-12-26T11:38:39.159Z,54.15
2022-12-26T11:41:32.693Z,54.44
2022-12-26T11:44:29.007Z,54.79
2022-12-26T11:47:07.443Z,54.99
2022-12-26T11:49:39.632Z,54.57
2022-12-26T11:52:45.941Z,54.80
2022-12-26T11:55:23.271Z,55.28
2022-12-26T11:58:09.201Z,55.29
2022-12-26T12:01:05.962Z,55.33
2022-12-26T12:03:49.957Z,55.37
2022-12-26T12:06:31.761Z,55.42
2022-12-26T12:09:07.266Z,55.28
2022-12-26T12:11:56.050Z,55.44
2022-12-26T12:14:32.399Z,55.44
2022-12-26T12:17:29.635Z,55.53
2022-12-26T12:20:25.205Z,55.59
2022-12-26T12:23:17.378Z,55.77
2022-12-26T12:26:35.271Z,55.76
2022-12-26T12:29:44.493Z,55.91
2022-12-26T12:32:14.850Z,56.24
2022-12-26T12:34:42.160Z,56.33
2022-12-26T12:37:47.978Z,56.21
2022-12-26T12:40:15.256Z,56.18
2022-12-26T12:43:06.701Z,56.03
2022-12-26T12:45:57.953Z,56.40
2022-12-26T12:48:34.366Z,56.25
2022-12-26T12:51:22.945Z,56.40
2022-12-26T12:54:14.698Z,56.48
2022-12-26T12:57:06.633Z,56.49
2022-12-26T12:59:44.116Z,56.46
2022-12-26T13:02:23.425Z,56.60
2022-12-26T13:04:59.652Z,56.82
2022-12-26T13:07:37.011Z,57.02
2022-12-26T13:10:18.233Z,57.26
2022-12-26T13:12:48.192Z,57.36
2022-12-26T13:15:31.107Z,57.21
2022-12-26T13:18:06.060Z,57.64
2022-12-26T13:20:40.084Z,57.88
2022-12-26T13:23:41.047Z,57.83
2022-12-26T13:26:16.393Z,57.70
2022-12-26T13:29:16.260Z,57.78
2022-12-26T13:31:44.742Z,57.98
2022-12-26T13:34:18.133Z,57.95
2022-12-26T13:36:50.667Z,58.12
2022-12-26T13:39:27.402Z,57.87
2022-12-26T13:42:28.764Z,57.87
2022-12-26T13:45:09.076Z,58.10
2022-12-26T13:47:38.761Z,57.77
2022-12-26T13:50:48.565Z,57.91
2022-12-26T13:53:26.784Z,58.03
2022-12-26T13:56:02.898Z,57.96
2022-12-26T13:58:48.406Z,57.83
2022-12-26T14:01:38.917Z,57.69
2022-12-26T14:04:15.688Z,57.94
2022-12-26T14:07:04.857Z,57.81
2022-12-26T14:09:50.874Z,57.61
2022-12-26T14:12:51.765Z,57.58
2022-12-26T14:15:32.095Z,57.76
2022-12-26T14:18:19.855Z,57.33
2022-12-26T14:21:32.205Z,57.52
2022-12-26T14:24:04.515Z,57.26
2022-12-26T14:26:51.794Z,57.53
2022-12-26T14:29:33.147Z,57.09
2022-12-26T14:32:15.853Z,57.18
2022-12-26T14:34:43.155Z,57.16
2022-12-26T14:37:52.619Z,57.25
2022-12-26T14:40:29.213Z,57.03
2022-12-26T14:43:18.017Z,57.09
2022-12-26T14:45:51.151Z,57.32
2022-12-26T14:48:18.654Z,57.44
2022-12-26T14:51:03.252Z,57.31
2022-12-26T14:53:33.986Z,57.22
2022-12-26T14:56:10.457Z,57.16
2022-12-26T14:58:53.188Z,57.08
2022-12-26T15:01:23.607Z,57.04
2022-12-26T15:04:04.174Z,56.96
2022-12-26T15:06:56.255Z,56.92
2022-12-26T15:09:35.588Z,56.95
2022-12-26T15:12:31.774Z,56.90
2022-12-26T15:15:31.207Z,56.97
2022-12-26T15:18:26.947Z,56.87
2022-12-26T15:21:12.477Z,56.91
2022-12-26T15:23:50.185Z,56.82
2022-12-26T15:26:56.732Z,56.97
2022-12-26T15:29:42.539Z,56.82
2022-12-26T15:32:31.658Z,56.91
2022-12-26T15:35:21.676Z,56.92
2022-12-26T15:38:04.229Z,56.91
2022-12-26T15:40:38.449Z,56.81
2022-12-26T15:43:21.132Z,57.05
2022-12-26T15:46:03.924Z,57.13
2022-12-26T15:48:50.799Z,57.30
2022-12-26T15:51:41.381Z,57.61
2022-12-26T15:54:27.480Z,57.42
2022-12-26T15:57:08.541Z,57.34
2022-12-26T15:59:56.513Z,56.87
2022-12-26T16:02:27.103Z,56.88
2022-12-26T16:05:21.112Z,56.91
2022-12-26T16:08:00.464Z,56.63
2022-12-26T16:10:32.450Z,56.77
2022-12-26T16:13:07.149Z,56.90
2022-12-26T16:15:35.081Z,56.98
2022-12-26T16:18:17.399Z,57.08
2022-12-26T16:21:05.455Z,57.06
2022-12-26T16:23:37.488Z,56.96
2022-12-26T16:26:05.303Z,56.67
2022-12-26T16:28:40.535Z,57.07
2022-12-26T16:31:09.626Z,57.23
2022-12-26T16:33:42.533Z,57.28
2022-12-26T16:36:27.195Z,57.29
2022-12-26T16:38:55.265Z,57.12
2022-12-26T16:41:28.683Z,57.00
2022-12-26T16:44:05.955Z,57.45
2022-12-26T16:46:33.333Z,57.30
2022-12-26T16:49:01.679Z,57.52
2022-12-26T16:51:49.730Z,57.35
2022-12-26T16:54:28.014Z,57.24
2022-12-26T16:57:13.191Z,57.66
2022-12-26T16:59:48.812Z,57.81
2022-12-26T17:02:35.918Z,57.49
2022-12-26T17:05:18.638Z,57.78
2022-12-26T17:07:49.522Z,57.88
2022-12-26T17:10:37.762Z,57.86
2022-12-26T17:13:08.508Z,57.52
2022-12-26T17:15:52.760Z,57.84
2022-12-26T17:18:49.645Z,57.92
2022-12-26T17:21:24.298Z,58.26
2022-12-26T17:24:25.293Z,58.31
2022-12-26T17:27:08.339Z,58.29
2022-12-26T17:29:54.031Z,58.17
2022-12-26T17:32:32.545Z,58.12
2022-12-26T17:35:02.804Z,58.02
2022-12-26T17:37:31.281Z,58.32
2022-12-26T17:40:13.774Z,58.29
2022-12-26T17:42:51.834Z,58.08
2022-12-26T17:45:25.389Z,58.13
2022-12-26T17:47:54.600Z,58.42
2022-12-26T17:50:23.792Z,58.19
2022-12-26T17:52:51.807Z,58.16
2022-12-26T17:55:27.249Z,58.27
2022-12-26T17:57:54.606Z,58.32
2022-12-26T18:00:24.763Z,58.14
2022-12-26T18:02:52.509Z,58.43
2022-12-26T18:05:21.003Z,58.36
2022-12-26T18:07:51.101Z,58.28
2022-12-26T18:10:24.327Z,58.06
2022-12-26T18:12:52.962Z,58.00
2022-12-26T18:15:20.544Z,58.13
2022-12-26T18:17:50.384Z,58.21
2022-12-26T18:20:20.808Z,58.31
2022-12-26T18:22:49.151Z,58.18
2022-12-26T18:25:18.383Z,58.25
2022-12-26T18:27:46.609Z,58.22
2022-12-26T18:30:22.985Z,58.33
2022-12-26T18:32:52.427Z,58.28
2022-12-26T18:35:20.762Z,58.12
2022-12-26T18:37:51.713Z,58.20
2022-12-26T18:40:25.165Z,58.24
2022-12-26T18:42:52.542Z,58.09
2022-12-26T18:45:20.132Z,58.18
2022-12-26T18:47:47.668Z,58.41
2022-12-26T18:50:16.057Z,58.72
2022-12-26T18:52:46.483Z,58.84
2022-12-26T18:55:16.455Z,58.86
2022-12-26T18:57:44.341Z,58.90
2022-12-26T19:00:14.782Z,58.98
2022-12-26T19:02:42.156Z,59.04
2022-12-26T19:05:22.806Z,59.26
2022-12-26T19:07:50.266Z,59.04
2022-12-26T19:10:20.208Z,59.10
2022-12-26T19:12:48.508Z,59.32
2022-12-26T19:15:16.461Z,59.26
2022-12-26T19:17:43.852Z,59.25
2022-12-26T19:20:21.491Z,59.62
2022-12-26T19:22:50.373Z,59.61
2022-12-26T19:25:20.018Z,59.53
2022-12-26T19:27:48.922Z,59.73
2022-12-26T19:30:17.955Z,59.87
2022-12-26T19:32:45.484Z,59.98
2022-12-26T19:35:14.381Z,59.95
2022-12-26T19:37:42.390Z,59.96
2022-12-26T19:40:10.869Z,60.47
2022-12-26T19:42:38.532Z,60.25
2022-12-26T19:45:08.690Z,59.95
2022-12-26T19:47:36.286Z,60.22
2022-12-26T19:50:05.971Z,59.96
2022-12-26T19:52:34.387Z,59.73
2022-12-26T19:55:02.205Z,59.82
2022-12-26T19:57:29.527Z,59.94
2022-12-26T19:59:56.843Z,59.95
2022-12-26T20:02:24.308Z,59.70
2022-12-26T20:04:51.910Z,59.36
2022-12-26T20:07:19.313Z,59.41
2022-12-26T20:09:46.680Z,59.29
2022-12-26T20:12:14.126Z,59.27
2022-12-26T20:14:41.460Z,59.29
2022-12-26T20:17:09.669Z,59.67
2022-12-26T20:19:37.543Z,59.52
2022-12-26T20:22:06.141Z,59.49
2022-12-26T20:24:33.984Z,59.73
2022-12-26T20:27:02.690Z,59.63
2022-12-26T20:29:30.583Z,59.20
2022-12-26T20:31:58.395Z,59.27
2022-12-26T20:34:26.212Z,59.60
2022-12-26T20:36:53.631Z,59.27
2022-12-26T20:39:22.720Z,59.22
2022-12-26T20:41:50.165Z,59.04
2022-12-26T20:44:18.386Z,58.83
2022-12-26T20:46:46.360Z,59.20
2022-12-26T20:49:14.165Z,58.83
2022-12-26T20:51:44.050Z,58.94
2022-12-26T20:54:13.776Z,58.74
2022-12-26T20:56:42.088Z,58.56
2022-12-26T20:59:09.884Z,59.22
2022-12-26T21:01:39.372Z,59.70
2022-12-26T21:04:08.222Z,59.27
2022-12-26T21:06:37.497Z,59.88
2022-12-26T21:09:06.552Z,59.89
2022-12-26T21:11:38.332Z,59.57
2022-12-26T21:14:10.511Z,59.63
2022-12-26T21:16:41.823Z,59.69
2022-12-26T21:19:15.056Z,59.95
2022-12-26T21:21:46.145Z,59.80
2022-12-26T21:24:26.626Z,59.46
2022-12-26T21:26:55.037Z,59.56
2022-12-26T21:29:26.224Z,59.48
2022-12-26T21:31:55.072Z,59.40
2022-12-26T21:34:24.924Z,59.20
2022-12-26T21:37:11.660Z,59.23
2022-12-26T21:39:39.064Z,59.11
2022-12-26T21:42:07.698Z,58.99
2022-12-26T21:44:35.997Z,59.05
2022-12-26T21:47:05.516Z,58.81
2022-12-26T21:49:32.958Z,58.86
2022-12-26T21:52:00.365Z,58.90
2022-12-26T21:54:49.119Z,58.62
2022-12-26T21:57:18.208Z,58.77
2022-12-26T21:59:59.100Z,58.74
2022-12-26T22:02:54.819Z,58.76
2022-12-26T22:05:25.914Z,58.60
2022-12-26T22:07:55.386Z,58.71
2022-12-26T22:10:43.053Z,58.43
2022-12-26T22:13:10.688Z,58.32
2022-12-26T22:16:01.858Z,58.40
2022-12-26T22:18:31.245Z,58.45
2022-12-26T22:21:07.756Z,58.51
2022-12-26T22:23:35.911Z,58.42
2022-12-26T22:26:03.815Z,58.22
2022-12-26T22:28:31.568Z,58.28
2022-12-26T22:31:00.391Z,58.32
2022-12-26T22:33:29.685Z,58.40
2022-12-26T22:36:07.250Z,58.05
2022-12-26T22:38:36.513Z,58.30
2022-12-26T22:41:04.905Z,58.40
2022-12-26T22:43:32.979Z,58.08
2022-12-26T22:46:00.416Z,58.16
2022-12-26T22:48:27.911Z,57.93
2022-12-26T22:50:56.059Z,57.64
2022-12-26T22:53:25.733Z,58.35
2022-12-26T22:55:58.293Z,58.06
2022-12-26T22:58:26.248Z,57.98
2022-12-26T23:00:54.264Z,58.20
2022-12-26T23:03:22.584Z,58.03
2022-12-26T23:05:51.047Z,58.07
2022-12-26T23:08:22.061Z,57.78
2022-12-26T23:10:51.450Z,58.03
2022-12-26T23:13:19.129Z,58.12
2022-12-26T23:15:55.761Z,57.79
2022-12-26T23:18:46.685Z,57.84
2022-12-26T23:21:38.876Z,57.64
2022-12-26T23:24:10.426Z,57.86
2022-12-26T23:26:39.815Z,57.76
2022-12-26T23:29:26.983Z,57.95
2022-12-26T23:31:54.362Z,57.55
2022-12-26T23:34:21.739Z,57.83
2022-12-26T23:36:49.261Z,57.71
2022-12-26T23:39:16.849Z,57.74
2022-12-26T23:41:44.276Z,57.65
2022-12-26T23:44:11.857Z,57.33
2022-12-26T23:46:41.225Z,57.82
2022-12-26T23:49:08.811Z,57.86
2022-12-26T23:51:36.203Z,58.19
2022-12-26T23:54:03.591Z,58.78
2022-12-26T23:56:30.947Z,59.52
2022-12-26T23:58:58.457Z,59.76
